Time;durP1;ratioP1;P1;durP2;ratioP2;P2;SDS_P1;SDS_P2;PMS_P1;PMS_P2;Temp;Humidity;BMP_temperature;BMP_pressure;BME280_temperature;BME280_humidity;BME280_pressure;Samples;Min_cycle;Max_cycle;Signal;HPM_P1;HPM_P2
2021/05/29 00:01:32;;;;;;;3.00;1.95;;;;;;;21.14;35.87;102523.47;4173716;28;20033;-46
2021/05/29 00:03:33;;;;;;;4.40;1.98;;;;;;;21.13;36.15;102518.16;4171761;28;20065;-46
2021/05/29 00:05:33;;;;;;;2.70;1.80;;;;;;;21.12;35.93;102516.50;4171699;28;20415;-44
2021/05/29 00:07:34;;;;;;;2.78;1.27;;;;;;;21.09;36.00;102523.41;4170656;28;20445;-43
2021/05/29 00:09:36;;;;;;;1.52;1.40;;;;;;;21.09;36.21;102514.22;4173201;28;20033;-46
2021/05/29 00:11:37;;;;;;;1.50;1.40;;;;;;;21.03;36.16;102514.13;4167225;28;20203;-44
2021/05/29 00:13:38;;;;;;;1.65;1.55;;;;;;;21.03;36.26;102516.91;4174594;28;20036;-44
2021/05/29 00:15:40;;;;;;;1.98;1.75;;;;;;;21.01;36.04;102512.69;4169947;28;20030;-44
2021/05/29 00:17:40;;;;;;;2.75;1.65;;;;;;;21.03;36.22;102516.91;4165144;28;20102;-44
2021/05/29 00:19:41;;;;;;;1.83;1.50;;;;;;;21.02;36.01;102518.03;4163036;28;20275;-44
2021/05/29 00:21:42;;;;;;;2.08;1.70;;;;;;;20.98;36.07;102516.81;4167586;28;20034;-44
2021/05/29 00:23:43;;;;;;;3.25;1.60;;;;;;;20.96;36.10;102523.72;4171067;28;20441;-44
2021/05/29 00:25:44;;;;;;;2.28;2.00;;;;;;;20.98;36.09;102505.69;4171798;28;20017;-43
2021/05/29 00:27:45;;;;;;;2.00;1.70;;;;;;;20.95;36.35;102510.94;4167403;28;20044;-44
2021/05/29 00:29:45;;;;;;;7.65;1.92;;;;;;;20.93;36.04;102508.41;4172572;28;20412;-44
2021/05/29 00:31:46;;;;;;;3.33;1.80;;;;;;;20.92;36.21;102515.06;4175217;28;20059;-45
2021/05/29 00:33:46;;;;;;;4.03;1.33;;;;;;;20.95;36.21;102514.53;4178465;28;20067;-46
2021/05/29 00:35:46;;;;;;;1.48;1.38;;;;;;;20.99;36.04;102512.09;4184105;28;20111;-46
2021/05/29 00:37:47;;;;;;;1.33;1.23;;;;;;;20.99;36.02;102518.53;4172167;28;20037;-46
2021/05/29 00:39:47;;;;;;;1.70;1.35;;;;;;;20.97;36.03;102517.91;4179617;28;20581;-45
2021/05/29 00:41:48;;;;;;;1.58;1.42;;;;;;;20.57;36.62;102510.53;4177793;28;20052;-47
2021/05/29 00:43:48;;;;;;;2.20;1.65;;;;;;;20.40;37.18;102515.19;4172659;28;20497;-45
2021/05/29 00:45:49;;;;;;;1.73;1.63;;;;;;;20.32;37.09;102510.88;4179267;28;20041;-45
2021/05/29 00:47:50;;;;;;;1.52;1.42;;;;;;;20.38;37.36;102515.44;4176239;28;20024;-44
2021/05/29 00:49:52;;;;;;;1.58;1.40;;;;;;;20.36;37.09;102508.44;4173619;28;20384;-45
2021/05/29 00:51:52;;;;;;;1.63;1.35;;;;;;;20.29;37.32;102514.16;4175726;28;20200;-45
2021/05/29 00:53:54;;;;;;;3.22;1.58;;;;;;;20.29;37.04;102519.72;4173661;28;20087;-46
2021/05/29 00:55:55;;;;;;;2.00;1.50;;;;;;;20.23;37.47;102527.09;4176122;28;20033;-46
2021/05/29 00:57:56;;;;;;;3.20;1.67;;;;;;;20.26;37.20;102532.16;4173133;28;20032;-45
2021/05/29 00:59:56;;;;;;;1.48;1.38;;;;;;;20.21;37.54;102529.28;4174325;28;20487;-44
2021/05/29 01:01:57;;;;;;;1.90;1.48;;;;;;;20.03;37.70;102510.00;4176320;28;20091;-45
2021/05/29 01:03:57;;;;;;;1.48;1.17;;;;;;;19.95;38.01;102525.97;4175754;28;20044;-45
2021/05/29 01:05:58;;;;;;;1.77;1.67;;;;;;;20.03;37.53;102524.75;4174467;28;20035;-45
2021/05/29 01:07:58;;;;;;;3.00;1.67;;;;;;;20.00;37.77;102522.47;4175353;28;20029;-44
2021/05/29 01:10:00;;;;;;;1.77;1.35;;;;;;;20.05;37.65;102524.50;4175873;28;20045;-44
2021/05/29 01:12:01;;;;;;;1.60;1.50;;;;;;;20.01;37.63;102526.94;4175745;28;20025;-44
2021/05/29 01:14:02;;;;;;;1.60;1.50;;;;;;;20.00;37.74;102525.25;4172803;28;20045;-44
2021/05/29 01:16:15;;;;;;;1.80;1.42;;;;;;;19.94;37.76;102527.09;4173259;28;20037;-43
2021/05/29 01:18:17;;;;;;;2.70;1.30;;;;;;;19.95;37.68;102534.31;4180256;28;20426;-45
2021/05/29 01:20:18;;;;;;;2.10;1.38;;;;;;;19.93;37.56;102533.72;4177425;28;20040;-44
2021/05/29 01:22:42;;;;;;;1.50;1.35;;;;;;;19.93;37.69;102528.16;4176476;28;20021;-44
2021/05/29 01:24:43;;;;;;;1.70;1.60;;;;;;;19.91;37.54;102524.81;4175591;28;20021;-44
2021/05/29 01:26:44;;;;;;;2.78;1.38;;;;;;;19.85;37.66;102536.03;4173894;28;20055;-44
2021/05/29 01:28:45;;;;;;;1.65;1.40;;;;;;;19.81;37.60;102513.41;4166121;28;20116;-43
2021/05/29 01:30:49;;;;;;;2.42;1.40;;;;;;;19.92;37.62;102525.63;4173922;28;20037;-43
2021/05/29 01:32:50;;;;;;;1.60;1.50;;;;;;;19.84;37.79;102534.31;4180184;28;20178;-44
2021/05/29 01:34:50;;;;;;;1.67;1.38;;;;;;;19.87;37.47;102531.94;4182860;28;20067;-44
2021/05/29 01:36:51;;;;;;;2.55;1.48;;;;;;;19.89;37.79;102540.03;4171455;28;20040;-43
2021/05/29 01:38:52;;;;;;;1.60;1.50;;;;;;;19.89;37.47;102532.50;4173301;28;20048;-44
2021/05/29 01:41:11;;;;;;;1.60;1.50;;;;;;;19.84;37.66;102534.31;4175823;28;20045;-44
2021/05/29 01:43:12;;;;;;;1.55;1.38;;;;;;;19.87;37.46;102525.53;4175312;28;20562;-44
2021/05/29 01:45:13;;;;;;;2.13;1.40;;;;;;;19.80;37.58;102531.16;4174984;28;20053;-44
2021/05/29 01:47:13;;;;;;;1.70;1.38;;;;;;;19.79;37.52;102526.72;4179110;28;20051;-44
2021/05/29 01:49:14;;;;;;;1.83;1.65;;;;;;;19.80;37.75;102536.72;4176493;28;20024;-44
2021/05/29 01:51:16;;;;;;;1.30;1.20;;;;;;;19.79;37.69;102532.28;4175185;28;20495;-46
2021/05/29 01:53:20;;;;;;;2.65;1.20;;;;;;;19.85;37.33;102524.91;4174936;28;20044;-45
2021/05/29 01:55:32;;;;;;;1.58;1.48;;;;;;;19.73;37.53;102528.53;4175009;28;20036;-46
2021/05/29 01:57:32;;;;;;;1.70;1.60;;;;;;;19.78;37.74;102531.41;4176566;28;20380;-45
2021/05/29 01:59:33;;;;;;;1.45;1.35;;;;;;;19.74;37.76;102523.81;4173787;28;20087;-46
2021/05/29 02:01:33;;;;;;;1.80;1.70;;;;;;;19.75;37.62;102517.19;4172663;28;20493;-45
2021/05/29 02:03:36;;;;;;;1.42;1.25;;;;;;;19.75;37.57;102525.50;4164948;28;20029;-45
2021/05/29 02:05:36;;;;;;;2.10;1.23;;;;;;;19.68;37.82;102525.66;4172264;28;20403;-45
2021/05/29 02:07:37;;;;;;;2.33;1.65;;;;;;;19.72;37.53;102528.78;4179559;28;20025;-43
2021/05/29 02:09:37;;;;;;;1.50;1.40;;;;;;;19.76;37.59;102527.22;4179346;28;20035;-44
2021/05/29 02:11:38;;;;;;;2.50;1.75;;;;;;;19.64;37.64;102523.59;4172311;28;20037;-45
2021/05/29 02:13:40;;;;;;;1.42;1.33;;;;;;;19.68;37.57;102524.78;4176651;28;20117;-44
2021/05/29 02:15:41;;;;;;;2.10;1.33;;;;;;;19.69;37.78;102532.88;4173564;28;20441;-45
2021/05/29 02:17:43;;;;;;;1.50;1.40;;;;;;;19.71;37.55;102525.16;4173768;28;20439;-44
2021/05/29 02:19:43;;;;;;;1.55;1.45;;;;;;;19.72;37.45;102531.56;4175867;28;20047;-44
2021/05/29 02:21:44;;;;;;;1.45;1.38;;;;;;;19.66;37.68;102530.59;4175149;28;20060;-44
2021/05/29 02:23:47;;;;;;;1.75;1.65;;;;;;;19.74;37.39;102532.16;4183020;28;20041;-44
2021/05/29 02:25:52;;;;;;;1.67;1.58;;;;;;;19.70;37.41;102533.75;4173358;28;20070;-44
2021/05/29 02:27:53;;;;;;;2.10;1.50;;;;;;;19.65;37.62;102530.84;4173197;28;20041;-44
2021/05/29 02:29:53;;;;;;;1.80;1.70;;;;;;;19.70;37.49;102530.97;4191746;28;20043;-44
2021/05/29 02:31:54;;;;;;;1.65;1.50;;;;;;;19.62;37.65;102531.31;4175159;28;20089;-43
2021/05/29 02:33:54;;;;;;;2.95;2.08;;;;;;;19.53;37.99;102536.41;4180211;28;20040;-46
2021/05/29 02:35:57;;;;;;;2.92;1.92;;;;;;;19.49;37.66;102521.31;4181529;28;20471;-45
2021/05/29 02:37:58;;;;;;;1.70;1.60;;;;;;;19.54;37.70;102536.19;4173796;28;20033;-44
2021/05/29 02:39:58;;;;;;;1.92;1.75;;;;;;;19.52;37.56;102530.00;4182837;28;20082;-43
2021/05/29 02:41:59;;;;;;;1.90;1.80;;;;;;;19.55;37.76;102542.56;4173937;28;20739;-43
2021/05/29 02:43:59;;;;;;;2.25;1.58;;;;;;;19.51;37.81;102536.66;4174121;28;20044;-43
2021/05/29 02:45:59;;;;;;;2.60;1.70;;;;;;;19.50;37.98;102546.06;4172648;28;20041;-43
2021/05/29 02:48:00;;;;;;;1.52;1.42;;;;;;;19.51;37.52;102528.31;4173784;28;20414;-44
2021/05/29 02:50:01;;;;;;;1.80;1.50;;;;;;;19.38;37.90;102525.78;4176725;28;20555;-44
2021/05/29 02:52:02;;;;;;;4.43;1.90;;;;;;;19.45;37.89;102532.06;4183041;28;20029;-43
2021/05/29 02:54:02;;;;;;;1.55;1.45;;;;;;;19.47;37.77;102535.44;4169799;28;20111;-44
2021/05/29 02:56:03;;;;;;;1.90;1.80;;;;;;;19.40;37.66;102527.25;4173496;28;20036;-43
2021/05/29 02:58:04;;;;;;;1.42;1.20;;;;;;;19.45;37.72;102529.28;4171595;28;20036;-43
2021/05/29 03:00:09;;;;;;;1.70;1.60;;;;;;;19.42;37.95;102540.88;4174406;28;20487;-43
2021/05/29 03:02:10;;;;;;;1.58;1.48;;;;;;;19.40;37.73;102535.56;4184148;28;20104;-43
2021/05/29 03:04:11;;;;;;;1.58;1.48;;;;;;;19.40;37.62;102540.25;4173767;28;20462;-43
2021/05/29 03:06:11;;;;;;;1.52;1.17;;;;;;;19.47;37.54;102545.72;4174595;28;20029;-43
2021/05/29 03:08:13;;;;;;;1.40;1.30;;;;;;;19.39;37.70;102544.16;4174971;28;20040;-43
2021/05/29 03:10:14;;;;;;;1.48;1.38;;;;;;;19.37;37.82;102546.28;4151618;28;20038;-43
2021/05/29 03:12:15;;;;;;;1.40;1.27;;;;;;;19.33;37.76;102547.88;4180239;28;20403;-43
2021/05/29 03:14:15;;;;;;;4.82;1.65;;;;;;;19.36;37.72;102544.63;4172907;28;20284;-43
2021/05/29 03:16:16;;;;;;;1.70;1.60;;;;;;;19.36;37.67;102547.41;4173405;28;20078;-44
2021/05/29 03:18:16;;;;;;;3.03;1.65;;;;;;;19.33;37.85;102547.88;4185329;28;20032;-43
2021/05/29 03:20:20;;;;;;;1.50;1.40;;;;;;;19.42;37.58;102557.56;4173874;28;20032;-42
2021/05/29 03:22:20;;;;;;;1.55;1.45;;;;;;;19.32;37.90;102548.97;4174023;28;20034;-43
2021/05/29 03:24:21;;;;;;;3.40;1.65;;;;;;;19.19;37.95;102527.84;4175619;28;20119;-43
2021/05/29 03:26:23;;;;;;;2.25;1.40;;;;;;;19.33;37.82;102550.66;4170204;28;20139;-44
2021/05/29 03:28:24;;;;;;;1.60;1.50;;;;;;;19.32;37.66;102548.97;4166751;28;20033;-43
2021/05/29 03:30:27;;;;;;;1.42;1.40;;;;;;;19.37;37.70;102560.19;4173440;28;20608;-43
2021/05/29 03:32:27;;;;;;;2.47;1.60;;;;;;;19.29;37.59;102555.00;4173925;28;20029;-43
2021/05/29 03:34:28;;;;;;;2.60;1.80;;;;;;;19.28;37.88;102558.84;4179298;28;20537;-43
2021/05/29 03:36:28;;;;;;;1.60;1.50;;;;;;;19.29;37.73;102558.59;4174627;28;20515;-44
2021/05/29 03:38:29;;;;;;;1.80;1.70;;;;;;;19.24;37.35;102559.31;4171773;28;20042;-43
2021/05/29 03:40:29;;;;;;;1.45;1.33;;;;;;;19.31;37.84;102564.78;4171708;28;20041;-43
2021/05/29 03:42:30;;;;;;;1.70;1.60;;;;;;;19.32;37.59;102554.50;4174384;28;20071;-44
2021/05/29 03:44:30;;;;;;;2.05;1.40;;;;;;;19.22;37.52;102555.97;4172970;28;20041;-43
2021/05/29 03:46:31;;;;;;;2.38;1.70;;;;;;;19.23;37.73;102571.53;4164476;28;20111;-43
2021/05/29 03:48:32;;;;;;;1.52;1.42;;;;;;;19.24;37.70;102567.66;4168712;28;20068;-44
2021/05/29 03:50:33;;;;;;;1.40;1.30;;;;;;;19.22;37.84;102572.63;4172186;28;20090;-45
2021/05/29 03:52:33;;;;;;;1.50;1.40;;;;;;;19.20;37.96;102574.78;4182590;28;20029;-44
2021/05/29 03:54:34;;;;;;;1.63;1.52;;;;;;;19.22;37.71;102564.28;4172749;28;20033;-44
2021/05/29 03:56:35;;;;;;;1.30;1.20;;;;;;;19.18;37.62;102565.84;4171578;28;20067;-43
2021/05/29 03:58:35;;;;;;;1.50;1.40;;;;;;;19.20;37.79;102569.25;4182798;28;20036;-43
2021/05/29 04:00:36;;;;;;;1.52;1.42;;;;;;;19.14;37.80;102567.41;4172686;28;20041;-44
2021/05/29 04:02:36;;;;;;;1.50;1.40;;;;;;;19.16;37.57;102556.91;4179366;28;20037;-44
2021/05/29 04:04:37;;;;;;;1.67;1.58;;;;;;;19.18;37.76;102573.31;4173935;28;20028;-44
2021/05/29 04:06:38;;;;;;;1.52;1.40;;;;;;;19.13;37.87;102578.75;4172503;28;21306;-43
2021/05/29 04:08:38;;;;;;;2.08;1.55;;;;;;;19.14;37.66;102574.88;4173348;28;20049;-42
2021/05/29 04:10:39;;;;;;;2.83;1.52;;;;;;;19.11;37.70;102572.59;4169271;28;20479;-42
2021/05/29 04:12:40;;;;;;;1.42;1.23;;;;;;;19.10;38.01;102571.75;4177727;28;20037;-42
2021/05/29 04:14:40;;;;;;;3.58;2.00;;;;;;;19.12;38.00;102568.72;4179718;28;20040;-43
2021/05/29 04:16:41;;;;;;;1.48;1.38;;;;;;;19.17;37.51;102585.50;4163123;28;20041;-42
2021/05/29 04:18:41;;;;;;;2.45;1.58;;;;;;;19.14;37.60;102589.63;4171360;28;20396;-42
2021/05/29 04:20:42;;;;;;;1.80;1.60;;;;;;;19.14;37.71;102583.22;4174414;28;20028;-42
2021/05/29 04:22:43;;;;;;;1.73;1.48;;;;;;;19.10;37.53;102582.84;4177159;28;20024;-42
2021/05/29 04:24:44;;;;;;;1.20;1.17;;;;;;;19.12;37.80;102580.66;4177837;28;20383;-42
2021/05/29 04:26:45;;;;;;;2.10;1.60;;;;;;;19.05;37.78;102588.25;4176345;28;20075;-42
2021/05/29 04:28:45;;;;;;;2.00;1.60;;;;;;;19.06;37.72;102587.13;4172877;28;20028;-43
2021/05/29 04:30:46;;;;;;;1.52;1.42;;;;;;;19.02;37.84;102586.78;4179886;28;20472;-43
2021/05/29 04:32:46;;;;;;;1.70;1.60;;;;;;;18.91;37.69;102561.75;4176516;28;20582;-43
2021/05/29 04:34:47;;;;;;;1.40;1.30;;;;;;;19.03;37.76;102585.72;4172559;28;20045;-43
2021/05/29 04:36:47;;;;;;;1.50;1.40;;;;;;;19.05;37.77;102591.84;4176719;28;20035;-42
2021/05/29 04:38:48;;;;;;;1.90;1.70;;;;;;;19.01;37.66;102584.25;4174785;28;20033;-42
2021/05/29 04:40:49;;;;;;;3.00;1.50;;;;;;;19.05;37.67;102585.47;4178919;28;20037;-43
2021/05/29 04:42:50;;;;;;;1.52;1.42;;;;;;;18.98;37.69;102587.50;4157822;28;20133;-42
2021/05/29 04:44:51;;;;;;;1.77;1.40;;;;;;;18.98;37.95;102591.09;4175335;28;20024;-42
2021/05/29 04:46:52;;;;;;;1.52;1.38;;;;;;;19.04;37.51;102603.19;4175121;28;20037;-48
2021/05/29 04:48:52;;;;;;;2.15;1.67;;;;;;;19.00;37.58;102596.41;4174730;28;20614;-42
2021/05/29 04:51:12;;;;;;;1.40;1.30;;;;;;;18.99;37.76;102595.59;4175085;28;20059;-42
2021/05/29 04:53:12;;;;;;;1.65;1.20;;;;;;;19.00;37.85;102601.97;4175151;28;20123;-43
2021/05/29 04:55:14;;;;;;;3.58;1.92;;;;;;;18.97;37.69;102592.22;4175198;28;20063;-43
2021/05/29 04:57:15;;;;;;;1.33;1.23;;;;;;;19.01;37.54;102598.13;4187612;28;20032;-43
2021/05/29 04:59:15;;;;;;;1.73;1.60;;;;;;;19.00;37.39;102602.84;4176272;28;20501;-42
2021/05/29 05:01:16;;;;;;;2.20;2.00;;;;;;;18.97;37.66;102602.44;4178940;28;20032;-42
2021/05/29 05:03:17;;;;;;;2.80;1.40;;;;;;;18.97;37.46;102605.22;4179278;28;20048;-42
2021/05/29 05:05:17;;;;;;;1.73;1.50;;;;;;;18.95;37.49;102604.63;4177529;28;20383;-44
2021/05/29 05:07:18;;;;;;;1.40;1.30;;;;;;;18.91;37.31;102603.38;4178765;28;20061;-42
2021/05/29 05:09:18;;;;;;;2.05;1.40;;;;;;;18.95;37.72;102615.72;4175855;28;20113;-43
2021/05/29 05:11:19;;;;;;;1.50;1.40;;;;;;;18.98;37.49;102618.03;4176939;28;20033;-43
2021/05/29 05:13:19;;;;;;;1.73;1.40;;;;;;;18.94;37.43;102614.00;4181931;28;20041;-44
2021/05/29 05:15:20;;;;;;;2.45;1.58;;;;;;;18.99;37.32;102612.22;4174093;28;20030;-42
2021/05/29 05:17:20;;;;;;;1.98;1.80;;;;;;;19.03;37.19;102624.56;4177466;28;20037;-44
2021/05/29 05:19:21;;;;;;;2.67;1.50;;;;;;;19.03;37.35;102621.78;4174089;28;20653;-44
2021/05/29 05:21:21;;;;;;;1.80;1.70;;;;;;;19.02;37.41;102628.41;4176214;28;20025;-43
2021/05/29 05:23:22;;;;;;;1.83;1.55;;;;;;;18.99;37.27;102625.28;4173610;28;20065;-43
2021/05/29 05:25:23;;;;;;;1.52;1.42;;;;;;;18.94;37.44;102620.44;4172755;28;20395;-45
2021/05/29 05:27:23;;;;;;;1.80;1.70;;;;;;;18.98;37.16;102621.63;4171752;28;20028;-41
2021/05/29 05:29:24;;;;;;;2.03;1.65;;;;;;;19.00;37.42;102625.03;4175498;28;20105;-42
2021/05/29 05:31:24;;;;;;;1.60;1.50;;;;;;;18.97;36.90;102621.88;4171715;28;20057;-42
2021/05/29 05:33:25;;;;;;;1.80;1.58;;;;;;;19.01;37.08;102625.88;4175917;28;20045;-42
2021/05/29 05:35:26;;;;;;;1.63;1.35;;;;;;;18.94;36.99;102619.56;4175898;28;20029;-44
2021/05/29 05:37:26;;;;;;;3.92;1.60;;;;;;;18.97;37.61;102631.06;4170156;28;20033;-45
2021/05/29 05:39:27;;;;;;;1.55;1.45;;;;;;;19.01;37.14;102628.66;4172808;28;20029;-44
2021/05/29 05:41:27;;;;;;;1.50;1.40;;;;;;;18.93;37.84;102637.31;4174059;28;20483;-42
2021/05/29 05:43:27;;;;;;;1.98;1.80;;;;;;;18.95;37.70;102638.75;4174068;28;20083;-42
2021/05/29 05:45:28;;;;;;;3.65;1.65;;;;;;;18.91;37.62;102645.88;4174593;28;20491;-43
2021/05/29 05:47:28;;;;;;;1.80;1.52;;;;;;;18.90;37.86;102641.41;4172592;28;20044;-42
2021/05/29 05:49:29;;;;;;;3.03;1.55;;;;;;;18.93;37.23;102643.69;4180677;28;20025;-42
2021/05/29 05:51:32;;;;;;;1.50;1.38;;;;;;;18.84;37.13;102650.66;4175273;28;20040;-42
2021/05/29 05:53:33;;;;;;;2.22;1.42;;;;;;;18.75;37.69;102650.13;4178449;28;20036;-43
2021/05/29 05:55:33;;;;;;;2.65;1.50;;;;;;;18.66;38.13;102652.41;4176321;28;20167;-41
2021/05/29 05:57:34;;;;;;;1.90;1.80;;;;;;;18.66;37.94;102654.31;4175888;28;20036;-41
2021/05/29 05:59:34;;;;;;;2.13;1.80;;;;;;;18.66;38.38;102648.75;4177183;28;20033;-41
2021/05/29 06:01:35;;;;;;;3.05;1.77;;;;;;;18.73;38.04;102666.19;4174297;28;20013;-42
2021/05/29 06:03:35;;;;;;;2.65;1.80;;;;;;;18.77;37.97;102663.78;4175890;28;20091;-43
2021/05/29 06:05:37;;;;;;;2.85;1.77;;;;;;;18.71;38.12;102673.91;4179558;28;20025;-42
2021/05/29 06:07:37;;;;;;;2.95;1.98;;;;;;;18.63;38.19;102657.53;4173688;28;20389;-42
2021/05/29 06:09:38;;;;;;;2.65;2.17;;;;;;;18.68;38.15;102674.34;4185438;28;20129;-42
2021/05/29 06:11:38;;;;;;;2.33;1.80;;;;;;;18.69;38.37;102674.13;4176197;28;20032;-43
2021/05/29 06:20:18;;;;;;;1.95;1.85;;;;;;;18.82;37.74;102680.59;4169003;28;20122;-43
2021/05/29 06:22:18;;;;;;;4.53;2.38;;;;;;;18.80;38.41;102679.94;4172984;28;20554;-43
2021/05/29 06:24:21;;;;;;;2.38;1.77;;;;;;;18.83;37.74;102685.91;4170720;28;20466;-42
2021/05/29 06:26:23;;;;;;;2.92;1.50;;;;;;;18.84;38.05;102679.25;4174374;28;20020;-42
2021/05/29 06:28:24;;;;;;;2.03;1.90;;;;;;;18.68;38.45;102653.00;4171715;28;20033;-43
2021/05/29 06:30:24;;;;;;;1.95;1.77;;;;;;;18.87;38.21;102686.25;4169708;28;20098;-42
2021/05/29 06:32:24;;;;;;;2.75;1.90;;;;;;;18.86;38.01;102692.88;4163945;28;20510;-42
2021/05/29 06:34:25;;;;;;;3.33;2.00;;;;;;;18.88;37.58;102693.53;4173439;28;20068;-44
2021/05/29 06:36:26;;;;;;;9.55;1.80;;;;;;;18.82;37.96;102692.50;4174134;28;20036;-43
2021/05/29 06:38:26;;;;;;;2.65;1.98;;;;;;;18.73;38.47;102701.41;4174374;28;20585;-44
2021/05/29 06:40:27;;;;;;;5.47;1.88;;;;;;;18.77;38.22;102702.59;4173230;28;20032;-43
2021/05/29 06:42:27;;;;;;;2.15;1.95;;;;;;;18.70;38.55;102699.94;4169121;28;20076;-44
2021/05/29 06:44:28;;;;;;;2.45;1.77;;;;;;;18.74;38.32;102694.75;4171914;28;20303;-42
2021/05/29 06:46:28;;;;;;;3.63;2.17;;;;;;;18.68;38.50;102689.06;4173125;28;20491;-43
2021/05/29 06:48:29;;;;;;;1.70;1.60;;;;;;;18.79;37.97;102697.69;4180742;28;20033;-42
2021/05/29 06:50:29;;;;;;;3.22;2.03;;;;;;;18.77;37.73;102700.69;4172579;28;20503;-42
2021/05/29 06:52:31;;;;;;;1.80;1.70;;;;;;;18.75;38.53;102702.00;4169494;28;20103;-44
2021/05/29 06:54:42;;;;;;;1.95;1.73;;;;;;;18.74;38.26;102698.41;4171297;28;20041;-42
2021/05/29 06:59:02;;;;;;;3.17;2.45;;;;;;;18.76;38.12;102700.94;4174489;28;20447;-44
2021/05/29 07:01:03;;;;;;;2.53;1.98;;;;;;;18.73;38.08;102699.47;4172898;28;20476;-43
2021/05/29 07:03:04;;;;;;;1.92;1.40;;;;;;;18.76;38.50;102703.72;4165341;28;20383;-42
2021/05/29 07:05:08;;;;;;;3.00;1.73;;;;;;;18.78;38.41;102698.75;4173892;28;20319;-43
2021/05/29 07:07:09;;;;;;;3.00;2.08;;;;;;;18.78;38.42;102699.59;4171481;28;20137;-43
2021/05/29 07:09:10;;;;;;;2.05;1.80;;;;;;;18.74;38.82;102705.84;4175671;28;20495;-43
2021/05/29 07:11:11;;;;;;;2.17;1.98;;;;;;;18.77;38.45;102695.16;4171643;28;20063;-43
2021/05/29 07:13:11;;;;;;;1.80;1.70;;;;;;;18.80;38.52;102703.00;4171750;28;20423;-44
2021/05/29 07:15:12;;;;;;;1.88;1.77;;;;;;;18.81;38.69;102699.13;4172400;28;20044;-42
2021/05/29 07:17:14;;;;;;;2.35;1.92;;;;;;;18.82;38.27;102705.56;4173006;28;20040;-43
2021/05/29 07:19:14;;;;;;;2.53;2.10;;;;;;;18.78;38.65;102698.75;4166301;28;20387;-45
2021/05/29 07:21:18;;;;;;;2.13;1.77;;;;;;;18.86;38.30;102702.06;4174093;28;20068;-45
2021/05/29 07:23:18;;;;;;;1.85;1.75;;;;;;;18.85;38.31;102705.91;4170290;28;20036;-44
2021/05/29 07:25:18;;;;;;;1.88;1.77;;;;;;;18.79;38.68;102706.84;4173952;28;20044;-45
2021/05/29 07:27:19;;;;;;;1.88;1.73;;;;;;;18.87;38.14;102708.47;4153026;28;20455;-44
2021/05/29 07:29:20;;;;;;;2.08;1.80;;;;;;;18.90;37.98;102708.00;4173545;28;20625;-45
2021/05/29 07:31:20;;;;;;;1.92;1.50;;;;;;;18.91;38.17;102708.84;4169470;28;20206;-45
2021/05/29 07:33:23;;;;;;;1.63;1.52;;;;;;;18.92;38.26;102718.84;4169522;28;20037;-43
2021/05/29 07:35:27;;;;;;;2.00;1.80;;;;;;;18.94;38.33;102716.69;4171346;28;20037;-43
2021/05/29 07:37:28;;;;;;;2.92;1.48;;;;;;;18.96;38.22;102722.88;4172092;28;20497;-44
2021/05/29 07:39:28;;;;;;;1.63;1.48;;;;;;;18.93;38.14;102717.78;4171646;28;20073;-44
2021/05/29 07:41:29;;;;;;;2.33;1.60;;;;;;;18.99;37.56;102717.69;4174258;28;20045;-43
2021/05/29 07:43:29;;;;;;;3.35;2.00;;;;;;;19.01;38.03;102725.78;4179444;28;20515;-43
2021/05/29 07:45:30;;;;;;;2.67;1.50;;;;;;;19.01;37.98;102721.06;4177470;28;20555;-43
2021/05/29 07:47:31;;;;;;;2.92;1.65;;;;;;;19.03;38.43;102723.59;4176339;28;20616;-42
2021/05/29 07:49:31;;;;;;;2.42;2.22;;;;;;;19.04;37.91;102725.31;4176869;28;20033;-43
2021/05/29 07:51:37;;;;;;;1.70;1.60;;;;;;;19.06;37.88;102734.25;4173458;28;20029;-45
2021/05/29 07:53:42;;;;;;;2.22;2.00;;;;;;;19.10;38.03;102735.50;4176098;28;20025;-42
2021/05/29 07:55:42;;;;;;;3.95;2.20;;;;;;;19.07;37.69;102741.50;4175511;28;20033;-43
2021/05/29 07:57:43;;;;;;;4.20;2.15;;;;;;;19.04;38.00;102733.63;4176300;28;20040;-43
2021/05/29 07:59:43;;;;;;;3.88;1.95;;;;;;;19.11;37.57;102737.22;4175385;28;20080;-44
2021/05/29 08:01:44;;;;;;;1.90;1.77;;;;;;;19.00;38.52;102741.59;4176812;28;20388;-42
2021/05/29 08:03:45;;;;;;;1.88;1.77;;;;;;;19.04;38.04;102744.75;4175327;28;20025;-42
2021/05/29 08:05:46;;;;;;;3.10;1.88;;;;;;;19.12;37.69;102743.59;4180773;28;20387;-42
2021/05/29 08:07:47;;;;;;;2.33;1.90;;;;;;;19.05;37.86;102744.50;4175085;28;20179;-43
2021/05/29 08:09:47;;;;;;;2.17;1.88;;;;;;;19.06;38.15;102745.34;4170877;28;20484;-42
2021/05/29 08:11:48;;;;;;;2.00;1.90;;;;;;;19.12;38.18;102743.59;4175748;28;20388;-42
2021/05/29 08:13:53;;;;;;;1.73;1.60;;;;;;;19.03;38.25;102745.81;4177243;28;20491;-44
2021/05/29 08:15:53;;;;;;;2.63;1.63;;;;;;;19.11;38.05;102748.31;4172343;28;20018;-42
2021/05/29 08:17:54;;;;;;;2.60;1.80;;;;;;;19.07;38.42;102745.09;4173443;28;20148;-43
2021/05/29 08:19:54;;;;;;;2.35;2.15;;;;;;;19.10;37.95;102745.78;4173602;28;20052;-42
2021/05/29 08:21:55;;;;;;;1.90;1.48;;;;;;;19.16;38.30;102745.69;4175869;28;20025;-43
2021/05/29 08:23:55;;;;;;;4.50;1.88;;;;;;;19.19;37.72;102742.44;4173559;28;20060;-42
2021/05/29 08:25:56;;;;;;;2.30;1.65;;;;;;;19.11;38.21;102722.47;4173202;28;20295;-43
2021/05/29 08:27:56;;;;;;;2.85;1.67;;;;;;;19.25;38.12;102748.97;4166760;28;20036;-42
2021/05/29 08:29:58;;;;;;;4.25;2.00;;;;;;;19.24;37.64;102745.34;4172188;28;20056;-42
2021/05/29 08:31:59;;;;;;;2.60;2.00;;;;;;;19.28;38.12;102751.28;4165119;28;20029;-42
2021/05/29 08:33:59;;;;;;;3.17;1.80;;;;;;;19.29;37.72;102741.03;4175541;28;20044;-43
2021/05/29 08:36:00;;;;;;;5.40;1.90;;;;;;;19.29;37.64;102750.19;4173388;28;20025;-43
2021/05/29 08:38:00;;;;;;;3.58;2.03;;;;;;;19.27;38.28;102752.34;4170668;28;20037;-43
2021/05/29 08:40:01;;;;;;;2.90;2.60;;;;;;;19.29;38.18;102757.69;4175498;28;20040;-42
2021/05/29 08:42:04;;;;;;;3.08;2.20;;;;;;;19.37;38.25;102751.78;4177377;28;20025;-44
2021/05/29 08:44:08;;;;;;;3.60;1.63;;;;;;;19.37;37.97;102754.56;4174112;28;20040;-42
2021/05/29 08:46:10;;;;;;;4.18;1.58;;;;;;;19.31;38.13;102753.59;4172562;28;20043;-43
2021/05/29 08:48:10;;;;;;;2.97;1.90;;;;;;;19.38;37.70;102765.44;4174822;28;20049;-43
2021/05/29 08:50:11;;;;;;;3.38;1.52;;;;;;;19.41;38.10;102764.97;4175559;28;20032;-43
2021/05/29 08:52:12;;;;;;;2.53;1.85;;;;;;;19.46;37.77;102761.47;4172126;28;20090;-42
2021/05/29 08:54:12;;;;;;;2.15;1.42;;;;;;;19.42;38.43;102757.50;4175967;28;20083;-42
2021/05/29 08:56:14;;;;;;;3.15;1.70;;;;;;;19.34;38.24;102746.69;4173063;28;20376;-42
2021/05/29 08:58:14;;;;;;;1.70;1.60;;;;;;;19.51;38.16;102760.75;4168157;28;20025;-43
2021/05/29 09:00:20;;;;;;;4.72;1.80;;;;;;;19.57;38.17;102769.00;4168137;28;20036;-42
2021/05/29 09:02:20;;;;;;;2.15;1.90;;;;;;;19.52;37.82;102768.03;4171028;28;20114;-42
2021/05/29 09:04:21;;;;;;;3.78;1.45;;;;;;;19.54;38.26;102769.50;4172537;28;20037;-43
2021/05/29 09:06:27;;;;;;;1.83;1.73;;;;;;;19.64;38.22;102766.13;4174626;28;20052;-44
2021/05/29 09:08:28;;;;;;;2.42;1.65;;;;;;;19.56;38.11;102764.53;4173253;28;20037;-43
2021/05/29 09:10:29;;;;;;;4.72;1.77;;;;;;;19.64;38.13;102768.06;4175290;28;20441;-42
2021/05/29 09:12:29;;;;;;;3.95;1.48;;;;;;;19.67;37.95;102764.81;4172484;28;20064;-42
2021/05/29 09:14:34;;;;;;;1.70;1.55;;;;;;;19.64;38.28;102763.34;4176051;28;20038;-42
2021/05/29 09:16:35;;;;;;;3.05;1.73;;;;;;;19.67;38.13;102767.59;4176408;28;20029;-42
2021/05/29 09:18:41;;;;;;;3.22;2.05;;;;;;;19.64;38.36;102760.56;4166755;28;20094;-43
2021/05/29 09:20:41;;;;;;;2.35;1.80;;;;;;;19.71;37.93;102763.22;4174832;28;20043;-43
2021/05/29 09:23:02;;;;;;;2.08;1.67;;;;;;;19.82;38.00;102756.00;4169746;28;20499;-42
2021/05/29 09:25:09;;;;;;;2.60;1.70;;;;;;;19.83;37.92;102755.78;4175586;28;20037;-42
2021/05/29 09:27:09;;;;;;;2.10;1.83;;;;;;;19.84;38.16;102753.84;4173439;28;20025;-42
2021/05/29 09:29:17;;;;;;;2.25;1.70;;;;;;;19.81;37.95;102763.50;4173586;28;20033;-43
2021/05/29 09:31:17;;;;;;;3.05;2.00;;;;;;;19.83;37.95;102753.00;4172277;28;20028;-43
2021/05/29 09:33:27;;;;;;;1.80;1.67;;;;;;;19.87;38.02;102759.81;4174858;28;20063;-43